Keady, United Kingdom
Current Conditions -  °F | °C
As of 4:20 PM on Thursday 29 Jan 2015 (Local Time) from EGAA Reporting Station
Scattered Clouds Scattered Clouds  
Wind Chill: 23°   Ceiling: Unl
Heat Index: 34°   Visibility: 6mi
Dew Point: 34°   Wind: 17mph
Humidity: 100%   Direction: 290°WNW
Pressure: 28.88"   Gusts: NA
Location:  54.25°N, 6.7°W
Report Text: EGAA 291620Z 29015KT 9999 SCT003 SCT007CB 01/01 Q0978
Loading
Personal Weather Stations






























Interactive Weather Map New forecast layout! Learn more

10-Day Weather Forecast

Advertisements
Track Severe Weather on mobile